createdAt,value
2023-02-11T00:00:48.094Z,23.30
2023-02-11T00:03:15.568Z,18.77
2023-02-11T00:05:43.055Z,20.90
2023-02-11T00:08:10.603Z,20.20
2023-02-11T00:10:37.825Z,19.48
2023-02-11T00:13:05.025Z,15.75
2023-02-11T00:15:32.313Z,18.48
2023-02-11T00:17:59.400Z,15.20
2023-02-11T00:20:27.511Z,19.80
2023-02-11T00:22:54.861Z,21.75
2023-02-11T00:25:23.034Z,18.20
2023-02-11T00:27:50.400Z,12.95
2023-02-11T00:30:17.715Z,20.27
2023-02-11T00:32:45.190Z,17.90
2023-02-11T00:35:12.548Z,24.60
2023-02-11T00:37:39.882Z,21.38
2023-02-11T00:40:07.604Z,25.02
2023-02-11T00:42:36.015Z,18.48
2023-02-11T00:45:04.232Z,12.82
2023-02-11T00:47:31.546Z,18.23
2023-02-11T00:50:01.136Z,17.52
2023-02-11T00:52:34.379Z,18.23
2023-02-11T00:55:01.449Z,19.63
2023-02-11T00:57:28.577Z,22.15
2023-02-11T00:59:55.593Z,21.88
2023-02-11T01:02:22.718Z,26.48
2023-02-11T01:04:50.109Z,18.52
2023-02-11T01:07:17.297Z,15.43
2023-02-11T01:09:44.464Z,20.15
2023-02-11T01:12:11.660Z,19.20
2023-02-11T01:14:41.355Z,21.70
2023-02-11T01:17:08.787Z,19.67
2023-02-11T01:19:37.695Z,18.73
2023-02-11T01:22:05.427Z,15.27
2023-02-11T01:24:32.833Z,18.73
2023-02-11T01:27:00.274Z,19.30
2023-02-11T01:29:27.908Z,16.25
2023-02-11T01:31:55.257Z,17.80
2023-02-11T01:34:22.421Z,16.80
2023-02-11T01:36:50.524Z,14.90
2023-02-11T01:39:18.299Z,17.70
2023-02-11T01:41:46.953Z,18.05
2023-02-11T01:44:35.110Z,19.70
2023-02-11T01:47:05.141Z,13.63
2023-02-11T01:49:41.910Z,19.35
2023-02-11T01:52:38.677Z,17.40
2023-02-11T01:55:30.062Z,14.77
2023-02-11T01:58:02.673Z,12.93
2023-02-11T02:00:37.708Z,12.05
2023-02-11T02:03:22.878Z,15.32
2023-02-11T02:06:17.005Z,17.63
2023-02-11T02:09:00.330Z,13.55
2023-02-11T02:11:29.881Z,12.43
2023-02-11T02:13:57.107Z,13.05
2023-02-11T02:16:37.248Z,13.90
2023-02-11T02:19:32.732Z,15.20
2023-02-11T02:22:38.755Z,12.23
2023-02-11T02:25:41.220Z,16.13
2023-02-11T02:28:46.313Z,12.63
2023-02-11T02:31:49.038Z,11.70
2023-02-11T02:34:23.893Z,14.57
2023-02-11T02:37:24.609Z,12.90
2023-02-11T02:39:51.935Z,16.17
2023-02-11T02:42:21.747Z,10.32
2023-02-11T02:44:53.510Z,15.55
2023-02-11T02:47:20.954Z,11.38
2023-02-11T02:49:48.293Z,13.43
2023-02-11T02:52:25.517Z,11.93
2023-02-11T02:55:10.865Z,13.07
2023-02-11T02:57:49.966Z,12.13
2023-02-11T03:00:36.381Z,12.05
2023-02-11T03:03:15.747Z,11.35
2023-02-11T03:06:05.234Z,16.08
2023-02-11T03:08:49.286Z,10.52
2023-02-11T03:11:19.469Z,11.80
2023-02-11T03:13:48.742Z,14.48
2023-02-11T03:16:21.592Z,10.05
2023-02-11T03:18:53.023Z,7.20
2023-02-11T03:21:21.109Z,14.80
2023-02-11T03:23:56.589Z,18.02
2023-02-11T03:26:30.365Z,11.10
2023-02-11T03:29:06.609Z,10.90
2023-02-11T03:32:04.455Z,8.80
2023-02-11T03:34:44.883Z,12.40
2023-02-11T03:37:18.586Z,8.32
2023-02-11T03:40:00.687Z,12.00
2023-02-11T03:42:33.852Z,12.85
2023-02-11T03:45:09.187Z,17.23
2023-02-11T03:47:39.930Z,13.75
2023-02-11T03:50:10.487Z,13.88
2023-02-11T03:52:38.510Z,8.77
2023-02-11T03:55:13.565Z,10.82
2023-02-11T03:57:40.762Z,13.32
2023-02-11T04:00:08.638Z,9.52
2023-02-11T04:02:42.059Z,9.10
2023-02-11T04:05:11.392Z,7.47
2023-02-11T04:07:38.571Z,10.43
2023-02-11T04:10:06.106Z,11.23
2023-02-11T04:12:33.223Z,13.85
2023-02-11T04:15:00.329Z,10.40
2023-02-11T04:17:27.459Z,8.68
2023-02-11T04:19:54.709Z,8.02
2023-02-11T04:22:22.163Z,8.82
2023-02-11T04:24:49.254Z,11.48
2023-02-11T04:27:16.409Z,8.40
2023-02-11T04:29:43.593Z,9.88
2023-02-11T04:32:11.874Z,12.68
2023-02-11T04:34:39.197Z,7.95
2023-02-11T04:37:07.053Z,7.72
2023-02-11T04:39:34.614Z,6.93
2023-02-11T04:42:01.885Z,8.18
2023-02-11T04:44:29.320Z,4.82
2023-02-11T04:46:56.544Z,8.05
2023-02-11T04:49:23.930Z,8.82
2023-02-11T04:51:51.866Z,9.82
2023-02-11T04:54:20.278Z,7.72
2023-02-11T04:56:50.053Z,9.93
2023-02-11T04:59:18.377Z,7.80
2023-02-11T05:01:48.310Z,7.20
2023-02-11T05:04:18.652Z,9.20
2023-02-11T05:06:45.888Z,4.15
2023-02-11T05:09:14.761Z,5.05
2023-02-11T05:11:42.110Z,9.50
2023-02-11T05:14:09.757Z,9.20
2023-02-11T05:16:39.251Z,10.80
2023-02-11T05:19:06.542Z,8.48
2023-02-11T05:21:33.961Z,9.75
2023-02-11T05:24:01.261Z,9.48
2023-02-11T05:26:28.568Z,7.03
2023-02-11T05:28:56.378Z,11.07
2023-02-11T05:31:23.721Z,10.73
2023-02-11T05:33:50.889Z,10.45
2023-02-11T05:36:18.131Z,8.25
2023-02-11T05:38:45.324Z,12.15
2023-02-11T05:41:13.274Z,9.55
2023-02-11T05:43:40.670Z,11.30
2023-02-11T05:46:08.142Z,12.52
2023-02-11T05:48:35.452Z,8.13
2023-02-11T05:51:02.867Z,10.43
2023-02-11T05:53:30.028Z,15.02
2023-02-11T05:55:57.673Z,9.48
2023-02-11T05:58:24.810Z,9.05
2023-02-11T06:00:51.979Z,14.60
2023-02-11T06:03:19.140Z,11.55
2023-02-11T06:05:46.562Z,7.97
2023-02-11T06:08:13.724Z,8.57
2023-02-11T06:10:43.328Z,9.80
2023-02-11T06:13:10.656Z,12.15
2023-02-11T06:15:37.851Z,12.38
2023-02-11T06:18:05.516Z,8.70
2023-02-11T06:20:32.931Z,12.85
2023-02-11T06:23:00.720Z,9.90
2023-02-11T06:25:27.843Z,15.00
2023-02-11T06:27:55.133Z,8.60
2023-02-11T06:30:22.406Z,10.18
2023-02-11T06:32:49.657Z,11.82
2023-02-11T06:35:17.034Z,11.45
2023-02-11T06:37:44.231Z,7.60
2023-02-11T06:40:12.481Z,9.10
2023-02-11T06:42:40.249Z,4.60
2023-02-11T06:45:13.365Z,11.25
2023-02-11T06:47:41.029Z,7.30
2023-02-11T06:50:11.205Z,10.40
2023-02-11T06:52:38.308Z,11.70
2023-02-11T06:55:05.775Z,12.52
2023-02-11T06:57:33.075Z,10.80
2023-02-11T07:00:00.178Z,13.73
2023-02-11T07:02:27.316Z,10.57
2023-02-11T07:04:54.501Z,10.38
2023-02-11T07:07:21.551Z,12.20
2023-02-11T07:09:48.662Z,9.38
2023-02-11T07:12:15.753Z,10.45
2023-02-11T07:14:42.934Z,8.80
2023-02-11T07:17:10.260Z,10.13
2023-02-11T07:19:37.462Z,12.57
2023-02-11T07:22:04.723Z,6.30
2023-02-11T07:24:31.950Z,11.85
2023-02-11T07:26:59.172Z,10.07
2023-02-11T07:29:26.366Z,11.52
2023-02-11T07:31:53.577Z,10.20
2023-02-11T07:34:20.699Z,16.20
2023-02-11T07:36:49.108Z,14.35
2023-02-11T07:39:16.381Z,10.45
2023-02-11T07:41:44.610Z,9.82
2023-02-11T07:44:12.205Z,12.52
2023-02-11T07:46:43.334Z,10.50
2023-02-11T07:49:10.542Z,10.23
2023-02-11T07:51:37.986Z,9.82
2023-02-11T07:54:05.051Z,14.65
2023-02-11T07:56:33.272Z,17.30
2023-02-11T07:59:03.051Z,9.90
2023-02-11T08:01:30.895Z,12.05
2023-02-11T08:03:59.408Z,16.58
2023-02-11T08:06:30.506Z,12.75
2023-02-11T08:08:57.830Z,10.25
2023-02-11T08:11:27.370Z,12.52
2023-02-11T08:13:57.425Z,14.73
2023-02-11T08:16:30.088Z,14.55
2023-02-11T08:19:00.095Z,12.10
2023-02-11T08:21:28.400Z,18.27
2023-02-11T08:23:56.088Z,15.18
2023-02-11T08:26:28.910Z,14.18
2023-02-11T08:28:58.200Z,14.15
2023-02-11T08:31:27.967Z,14.30
2023-02-11T08:33:58.165Z,16.52
2023-02-11T08:36:29.322Z,16.13
2023-02-11T08:39:12.113Z,14.55
2023-02-11T08:41:45.837Z,13.20
2023-02-11T08:44:13.280Z,12.38
2023-02-11T08:46:40.475Z,13.27
2023-02-11T08:49:08.203Z,13.57
2023-02-11T08:51:35.733Z,15.88
2023-02-11T08:54:03.116Z,17.17
2023-02-11T08:56:31.812Z,12.20
2023-02-11T08:58:59.202Z,16.08
2023-02-11T09:01:29.816Z,13.35
2023-02-11T09:03:58.454Z,14.32
2023-02-11T09:06:26.414Z,14.77
2023-02-11T09:08:57.802Z,12.43
2023-02-11T09:11:34.278Z,9.10
2023-02-11T09:14:02.722Z,13.57
2023-02-11T09:16:33.778Z,14.60
2023-02-11T09:19:03.461Z,16.17
2023-02-11T09:21:33.576Z,15.15
2023-02-11T09:24:00.959Z,10.70
2023-02-11T09:26:33.042Z,12.98
2023-02-11T09:29:00.993Z,15.10
2023-02-11T09:31:30.913Z,14.48
2023-02-11T09:34:06.098Z,12.63
2023-02-11T09:36:38.873Z,12.18
2023-02-11T09:39:09.693Z,14.95
2023-02-11T09:41:56.631Z,8.60
2023-02-11T09:44:31.653Z,13.35
2023-02-11T09:47:02.319Z,11.80
2023-02-11T09:49:47.493Z,15.00
2023-02-11T09:52:54.309Z,13.50
2023-02-11T09:55:25.924Z,7.65
2023-02-11T09:57:53.558Z,16.60
2023-02-11T10:00:40.143Z,16.48
2023-02-11T10:03:19.657Z,13.80
2023-02-11T10:06:14.521Z,12.80
2023-02-11T10:09:13.088Z,10.68
2023-02-11T10:11:46.000Z,12.98
2023-02-11T10:14:40.433Z,15.68
2023-02-11T10:17:14.925Z,12.80
2023-02-11T10:19:42.486Z,14.93
2023-02-11T10:22:24.846Z,13.00
2023-02-11T10:24:58.525Z,13.90
2023-02-11T10:27:35.668Z,12.43
2023-02-11T10:30:34.287Z,13.25
2023-02-11T10:33:12.240Z,16.73
2023-02-11T10:35:39.531Z,14.20
2023-02-11T10:38:09.436Z,15.65
2023-02-11T10:40:36.668Z,13.13
2023-02-11T10:43:08.148Z,14.07
2023-02-11T10:45:38.106Z,10.68
2023-02-11T10:48:26.032Z,17.50
2023-02-11T10:51:08.940Z,13.52
2023-02-11T10:53:36.059Z,16.42
2023-02-11T10:56:03.809Z,10.77
2023-02-11T10:58:41.380Z,14.27
2023-02-11T11:01:23.505Z,12.50
2023-02-11T11:03:54.906Z,13.80
2023-02-11T11:06:34.972Z,10.57
2023-02-11T11:09:02.325Z,15.93
2023-02-11T11:11:29.516Z,13.85
2023-02-11T11:14:01.743Z,12.57
2023-02-11T11:16:38.188Z,18.75
2023-02-11T11:19:08.092Z,11.93
2023-02-11T11:21:56.661Z,12.43
2023-02-11T11:24:34.612Z,18.98
2023-02-11T11:27:04.370Z,13.27
2023-02-11T11:29:37.679Z,9.68
2023-02-11T11:32:24.314Z,11.13
2023-02-11T11:35:00.157Z,13.20
2023-02-11T11:37:30.630Z,11.32
2023-02-11T11:40:02.703Z,9.57
2023-02-11T11:42:37.101Z,10.57
2023-02-11T11:45:04.717Z,13.80
2023-02-11T11:47:34.727Z,11.20
2023-02-11T11:50:21.257Z,12.07
2023-02-11T11:52:56.974Z,20.17
2023-02-11T11:56:11.670Z,15.98
2023-02-11T11:58:39.213Z,12.38
2023-02-11T12:01:43.601Z,9.43
2023-02-11T12:04:32.908Z,11.75
2023-02-11T12:07:25.976Z,10.23
2023-02-11T12:10:15.186Z,10.07
2023-02-11T12:12:53.749Z,17.25
2023-02-11T12:15:36.797Z,17.08
2023-02-11T12:18:22.312Z,11.98
2023-02-11T12:21:26.953Z,17.00
2023-02-11T12:23:54.081Z,23.67
2023-02-11T12:26:33.294Z,19.33
2023-02-11T12:29:31.739Z,16.75
2023-02-11T12:32:29.801Z,14.75
2023-02-11T12:35:15.322Z,13.52
2023-02-11T12:38:16.161Z,14.80
2023-02-11T12:41:10.465Z,14.38
2023-02-11T12:43:41.012Z,17.52
2023-02-11T12:46:12.050Z,11.27
2023-02-11T12:48:48.262Z,16.15
2023-02-11T12:51:32.805Z,15.57
2023-02-11T12:54:21.908Z,17.38
2023-02-11T12:57:03.028Z,11.07
2023-02-11T12:59:41.145Z,21.10
2023-02-11T13:02:31.561Z,18.95
2023-02-11T13:05:14.267Z,16.98
2023-02-11T13:07:45.615Z,16.73
2023-02-11T13:10:21.872Z,15.27
2023-02-11T13:13:10.396Z,14.32
2023-02-11T13:15:39.470Z,17.20
2023-02-11T13:18:27.978Z,15.73
2023-02-11T13:21:15.174Z,23.25
2023-02-11T13:23:42.543Z,15.75
2023-02-11T13:26:28.940Z,20.02
2023-02-11T13:29:33.266Z,17.40
2023-02-11T13:32:26.815Z,20.58
2023-02-11T13:34:56.660Z,20.40
2023-02-11T13:37:30.890Z,20.27
2023-02-11T13:40:05.147Z,18.75
2023-02-11T13:42:48.186Z,23.45
2023-02-11T13:45:48.903Z,20.98
2023-02-11T13:48:32.543Z,16.90
2023-02-11T13:51:02.494Z,18.90
2023-02-11T13:53:31.063Z,16.98
2023-02-11T13:56:09.465Z,17.40
2023-02-11T13:58:47.816Z,16.08
2023-02-11T14:01:41.926Z,21.75
2023-02-11T14:04:47.367Z,22.05
2023-02-11T14:10:43.999Z,15.95
2023-02-11T14:13:41.940Z,22.30
2023-02-11T14:16:36.902Z,21.42
2023-02-11T14:19:06.556Z,18.73
2023-02-11T14:21:37.756Z,19.80
2023-02-11T14:24:05.159Z,23.13
2023-02-11T14:27:00.615Z,22.13
2023-02-11T14:29:51.426Z,19.85
2023-02-11T14:32:38.202Z,24.52
2023-02-11T14:35:08.420Z,19.98
2023-02-11T14:37:50.627Z,23.35
2023-02-11T14:40:27.257Z,17.47
2023-02-11T14:42:56.445Z,17.42
2023-02-11T14:45:27.560Z,19.02
2023-02-11T14:48:08.595Z,17.55
2023-02-11T14:50:38.793Z,13.80
2023-02-11T14:53:11.755Z,17.60
2023-02-11T14:55:43.381Z,15.90
2023-02-11T14:58:19.687Z,24.60
2023-02-11T15:01:09.371Z,19.08
2023-02-11T15:03:42.429Z,16.85
2023-02-11T15:06:22.612Z,18.10
2023-02-11T15:09:19.066Z,22.08
2023-02-11T15:11:49.223Z,17.85
2023-02-11T15:14:19.200Z,14.40
2023-02-11T15:16:48.121Z,21.30
2023-02-11T15:19:32.346Z,17.23
2023-02-11T15:22:33.211Z,19.85
2023-02-11T15:25:10.978Z,14.40
2023-02-11T15:28:02.260Z,16.88
2023-02-11T15:30:34.352Z,14.43
2023-02-11T15:33:05.680Z,19.83
2023-02-11T15:35:37.424Z,14.63
2023-02-11T15:38:05.275Z,19.38
2023-02-11T15:40:37.718Z,17.73
2023-02-11T15:43:12.078Z,19.58
2023-02-11T15:45:42.993Z,13.00
2023-02-11T15:48:16.511Z,18.42
2023-02-11T15:50:50.879Z,18.45
2023-02-11T15:53:40.880Z,14.02
2023-02-11T15:56:12.968Z,20.92
2023-02-11T15:58:43.045Z,19.85
2023-02-11T16:01:11.434Z,13.48
2023-02-11T16:03:42.604Z,14.32
2023-02-11T16:06:21.533Z,15.75
2023-02-11T16:09:00.568Z,14.55
2023-02-11T16:11:56.064Z,12.23
2023-02-11T16:14:39.581Z,16.40
2023-02-11T16:17:13.232Z,11.13
2023-02-11T16:19:49.487Z,14.93
2023-02-11T16:22:25.293Z,15.73
2023-02-11T16:24:58.090Z,20.02
2023-02-11T16:27:30.588Z,14.38
2023-02-11T16:29:59.018Z,15.38
2023-02-11T16:32:30.613Z,20.40
2023-02-11T16:35:00.960Z,10.05
2023-02-11T16:37:28.846Z,16.15
2023-02-11T16:39:58.347Z,13.60
2023-02-11T16:42:26.924Z,14.20
2023-02-11T16:44:54.120Z,15.90
2023-02-11T16:47:26.778Z,20.25
2023-02-11T16:49:55.977Z,16.98
2023-02-11T16:52:25.749Z,15.73
2023-02-11T16:54:53.275Z,15.48
2023-02-11T16:57:29.603Z,17.25
2023-02-11T16:59:59.380Z,16.35
2023-02-11T17:02:31.663Z,21.00
2023-02-11T17:05:03.722Z,18.20
2023-02-11T17:07:34.712Z,13.27
2023-02-11T17:10:02.404Z,21.52
2023-02-11T17:12:30.938Z,17.50
2023-02-11T17:14:58.243Z,20.90
2023-02-11T17:17:25.441Z,14.75
2023-02-11T17:19:52.562Z,17.05
2023-02-11T17:22:19.711Z,18.48
2023-02-11T17:24:46.753Z,16.15
2023-02-11T17:27:15.393Z,14.77
2023-02-11T17:29:42.684Z,16.90
2023-02-11T17:32:12.842Z,15.15
2023-02-11T17:34:40.236Z,14.68
2023-02-11T17:37:09.446Z,15.50
2023-02-11T17:39:37.747Z,20.20
2023-02-11T17:42:06.213Z,22.88
2023-02-11T17:44:34.019Z,15.77
2023-02-11T17:47:01.227Z,20.23
2023-02-11T17:49:28.671Z,20.90
2023-02-11T17:51:55.899Z,19.27
2023-02-11T17:54:23.140Z,17.98
2023-02-11T17:56:51.014Z,21.90
2023-02-11T17:59:18.284Z,15.23
2023-02-11T18:01:45.465Z,17.55
2023-02-11T18:04:19.456Z,20.75
2023-02-11T18:06:47.209Z,18.95
2023-02-11T18:09:14.628Z,17.27
2023-02-11T18:11:42.374Z,15.45
2023-02-11T18:14:11.078Z,14.05
2023-02-11T18:16:40.479Z,18.75
2023-02-11T18:19:11.716Z,11.85
2023-02-11T18:21:39.372Z,18.23
2023-02-11T18:24:07.316Z,18.48
2023-02-11T18:26:35.819Z,15.05
2023-02-11T18:29:07.398Z,13.75
2023-02-11T18:31:37.803Z,24.50
2023-02-11T18:34:07.665Z,13.90
2023-02-11T18:36:35.750Z,14.50
2023-02-11T18:39:05.153Z,11.88
2023-02-11T18:41:32.646Z,25.40
2023-02-11T18:44:03.280Z,20.48
2023-02-11T18:46:31.528Z,29.67
2023-02-11T18:49:02.251Z,19.55
2023-02-11T18:51:32.818Z,18.40
2023-02-11T18:54:04.441Z,20.90
2023-02-11T18:56:35.157Z,19.75
2023-02-11T19:01:34.548Z,29.95
2023-02-11T19:04:04.673Z,17.25
2023-02-11T19:06:35.002Z,16.63
2023-02-11T19:09:07.913Z,18.00
2023-02-11T19:11:47.198Z,13.88
2023-02-11T19:14:22.547Z,13.93
2023-02-11T19:16:51.640Z,17.60
2023-02-11T19:19:20.256Z,16.15
2023-02-11T19:21:50.759Z,17.25
2023-02-11T19:24:27.073Z,19.58
2023-02-11T19:27:00.066Z,20.75
2023-02-11T19:29:28.306Z,24.98
2023-02-11T19:31:56.143Z,23.27
2023-02-11T19:34:26.373Z,18.52
2023-02-11T19:36:56.876Z,23.67
2023-02-11T19:39:24.950Z,12.60
2023-02-11T19:41:52.781Z,16.70
2023-02-11T19:44:20.299Z,14.13
2023-02-11T19:46:49.100Z,16.88
2023-02-11T19:49:28.824Z,12.85
2023-02-11T19:52:03.096Z,19.27
2023-02-11T19:54:40.607Z,16.30
2023-02-11T19:57:08.219Z,15.77
2023-02-11T19:59:35.498Z,17.92
2023-02-11T20:02:05.580Z,21.05
2023-02-11T20:04:33.479Z,13.80
2023-02-11T20:07:00.675Z,17.38
2023-02-11T20:09:29.149Z,19.13
2023-02-11T20:11:56.514Z,15.43
2023-02-11T20:14:25.602Z,15.60
2023-02-11T20:16:54.700Z,14.40
2023-02-11T20:19:22.763Z,17.58
2023-02-11T20:21:53.071Z,18.67
2023-02-11T20:24:20.760Z,17.02
2023-02-11T20:26:48.917Z,17.13
2023-02-11T20:29:18.266Z,14.55
2023-02-11T20:31:45.880Z,18.55
2023-02-11T20:34:13.379Z,18.48
2023-02-11T20:36:43.320Z,16.67
2023-02-11T20:39:11.652Z,17.20
2023-02-11T20:41:41.786Z,20.33
2023-02-11T20:44:11.032Z,16.45
2023-02-11T20:46:41.267Z,14.07
2023-02-11T20:49:12.007Z,18.75
2023-02-11T20:51:39.949Z,18.75
2023-02-11T20:54:18.974Z,13.20
2023-02-11T20:56:48.218Z,18.48
2023-02-11T20:59:16.950Z,18.00
2023-02-11T21:01:47.878Z,18.13
2023-02-11T21:04:26.490Z,17.40
2023-02-11T21:06:55.985Z,16.35
2023-02-11T21:09:26.619Z,15.07
2023-02-11T21:11:54.743Z,19.02
2023-02-11T21:14:23.462Z,13.88
2023-02-11T21:16:51.177Z,14.07
2023-02-11T21:19:20.180Z,14.68
2023-02-11T21:21:47.621Z,17.85
2023-02-11T21:24:14.808Z,16.13
2023-02-11T21:26:42.545Z,16.77
2023-02-11T21:29:10.133Z,15.88
2023-02-11T21:31:38.168Z,16.17
2023-02-11T21:34:05.753Z,18.10
2023-02-11T21:36:33.084Z,17.90
2023-02-11T21:39:01.934Z,16.40
2023-02-11T21:41:29.497Z,15.25
2023-02-11T21:43:56.836Z,19.90
2023-02-11T21:46:24.702Z,15.07
2023-02-11T21:48:52.388Z,14.65
2023-02-11T21:51:22.415Z,14.10
2023-02-11T21:53:54.474Z,15.63
2023-02-11T21:56:21.740Z,13.93
2023-02-11T21:58:52.530Z,15.50
2023-02-11T22:01:22.406Z,16.30
2023-02-11T22:03:50.158Z,15.32
2023-02-11T22:06:23.741Z,12.10
2023-02-11T22:08:51.033Z,16.23
2023-02-11T22:11:18.316Z,18.13
2023-02-11T22:13:46.084Z,14.77
2023-02-11T22:16:15.971Z,18.50
2023-02-11T22:18:47.150Z,14.25
2023-02-11T22:21:17.417Z,14.70
2023-02-11T22:23:45.044Z,14.88
2023-02-11T22:26:15.355Z,14.82
2023-02-11T22:28:43.012Z,13.82
2023-02-11T22:31:25.254Z,17.98
2023-02-11T22:33:52.479Z,17.48
2023-02-11T22:36:28.734Z,14.70
2023-02-11T22:38:56.379Z,14.40
2023-02-11T22:41:23.628Z,13.95
2023-02-11T22:43:50.853Z,16.00
2023-02-11T22:46:19.983Z,15.30
2023-02-11T22:48:48.518Z,21.20
2023-02-11T22:51:21.875Z,15.20
2023-02-11T22:53:51.269Z,15.63
2023-02-11T22:56:18.657Z,15.50
2023-02-11T22:58:45.810Z,13.50
2023-02-11T23:01:13.818Z,16.85
2023-02-11T23:03:41.203Z,13.90
2023-02-11T23:06:08.904Z,12.48
2023-02-11T23:08:37.936Z,13.88
2023-02-11T23:11:10.007Z,12.50
2023-02-11T23:13:39.707Z,10.13
2023-02-11T23:16:10.173Z,10.20
2023-02-11T23:18:39.085Z,14.10
2023-02-11T23:21:11.390Z,13.15
2023-02-11T23:26:14.028Z,12.32
2023-02-11T23:28:42.129Z,13.18
2023-02-11T23:31:15.553Z,10.35
2023-02-11T23:33:43.086Z,11.57
2023-02-11T23:36:10.751Z,11.45
2023-02-11T23:38:38.064Z,12.40
2023-02-11T23:41:05.598Z,12.15
2023-02-11T23:43:32.822Z,10.13
2023-02-11T23:46:00.170Z,12.65
2023-02-11T23:48:27.601Z,7.65
2023-02-11T23:50:54.815Z,9.43
2023-02-11T23:53:22.018Z,10.95
2023-02-11T23:55:49.323Z,11.30
2023-02-11T23:58:16.597Z,11.43
